Greenville, Indiana
Current Conditions -  °F | °C
As of 8:56 PM on Monday 20 Oct 2014 (Local Time) from KSDF Reporting Station
Thunderstorm Thunderstorm  
Wind Chill: 62°   Ceiling: 4300
Heat Index: 62°   Visibility: 10mi
Dew Point: 54°   Wind: 12mph
Humidity: 75%   Direction: 210°SSW
Pressure: 29.91"   Gusts: NA
Location:  38.37°N, 85.99°W
Report Text: KSDF 210056Z 21010KT 10SM -TSRA BKN043CB BKN065 OVC085 17/12 A2991 RMK AO2 RAB30 TSB47 SLP128 OCNL LTGICCC E TS E MOV E P0001 T01670122
Loading
Personal Weather Stations






























Interactive Weather Map
Tropical Storm Tracking
New forecast layout! Learn more

10-Day Weather Forecast

Advertisements
Track Severe Weather on mobile